sensor_id;sensor_type;location;lat;lon;timestamp;pressure;altitude;pressure_sealevel;temperature;humidity
64095;BME280;50353;51.420;5.682;2022-11-15T00:01:09;100581.34;;;8.60;98.93
64095;BME280;50353;51.420;5.682;2022-11-15T00:03:38;100573.16;;;8.65;98.39
64095;BME280;50353;51.420;5.682;2022-11-15T00:06:04;100571.22;;;8.69;98.69
64095;BME280;50353;51.420;5.682;2022-11-15T00:08:31;100574.41;;;8.74;98.42
64095;BME280;50353;51.420;5.682;2022-11-15T00:10:57;100577.00;;;8.75;98.64
64095;BME280;50353;51.420;5.682;2022-11-15T00:13:23;100576.22;;;8.73;99.38
64095;BME280;50353;51.420;5.682;2022-11-15T00:15:49;100570.63;;;8.79;99.51
64095;BME280;50353;51.420;5.682;2022-11-15T00:18:15;100575.78;;;8.81;99.28
64095;BME280;50353;51.420;5.682;2022-11-15T00:20:40;100569.50;;;8.84;99.25
64095;BME280;50353;51.420;5.682;2022-11-15T00:23:06;100565.41;;;8.78;99.87
64095;BME280;50353;51.420;5.682;2022-11-15T00:25:32;100559.19;;;8.79;100.00
64095;BME280;50353;51.420;5.682;2022-11-15T00:27:59;100564.22;;;8.84;99.07
64095;BME280;50353;51.420;5.682;2022-11-15T00:30:25;100558.78;;;8.87;99.79
64095;BME280;50353;51.420;5.682;2022-11-15T00:32:51;100568.47;;;8.86;100.00
64095;BME280;50353;51.420;5.682;2022-11-15T00:35:16;100561.91;;;8.93;99.87
64095;BME280;50353;51.420;5.682;2022-11-15T00:37:42;100555.84;;;8.91;99.17
64095;BME280;50353;51.420;5.682;2022-11-15T00:40:08;100556.53;;;8.95;100.00
64095;BME280;50353;51.420;5.682;2022-11-15T00:42:33;100557.66;;;8.91;100.00
64095;BME280;50353;51.420;5.682;2022-11-15T00:44:58;100557.22;;;8.99;100.00
64095;BME280;50353;51.420;5.682;2022-11-15T00:47:23;100548.13;;;8.88;100.00
64095;BME280;50353;51.420;5.682;2022-11-15T00:49:49;100554.50;;;9.00;100.00
64095;BME280;50353;51.420;5.682;2022-11-15T00:52:14;100557.22;;;8.99;100.00
64095;BME280;50353;51.420;5.682;2022-11-15T00:54:39;100548.72;;;8.93;100.00
64095;BME280;50353;51.420;5.682;2022-11-15T00:57:04;100552.84;;;9.13;100.00
64095;BME280;50353;51.420;5.682;2022-11-15T00:59:30;100550.22;;;9.13;100.00
64095;BME280;50353;51.420;5.682;2022-11-15T01:01:55;100546.69;;;9.13;100.00
64095;BME280;50353;51.420;5.682;2022-11-15T01:04:21;100546.88;;;9.10;100.00
64095;BME280;50353;51.420;5.682;2022-11-15T01:06:46;100548.22;;;9.17;100.00
64095;BME280;50353;51.420;5.682;2022-11-15T01:09:11;100543.63;;;9.21;100.00
64095;BME280;50353;51.420;5.682;2022-11-15T01:11:37;100542.69;;;9.22;100.00
64095;BME280;50353;51.420;5.682;2022-11-15T01:14:02;100539.28;;;9.20;100.00
64095;BME280;50353;51.420;5.682;2022-11-15T01:16:27;100539.97;;;9.23;100.00
64095;BME280;50353;51.420;5.682;2022-11-15T01:18:53;100541.97;;;9.34;100.00
64095;BME280;50353;51.420;5.682;2022-11-15T01:21:19;100533.16;;;9.19;100.00
64095;BME280;50353;51.420;5.682;2022-11-15T01:23:45;100539.28;;;9.20;100.00
64095;BME280;50353;51.420;5.682;2022-11-15T01:26:12;100539.47;;;9.17;100.00
64095;BME280;50353;51.420;5.682;2022-11-15T01:28:40;100534.19;;;9.17;100.00
64095;BME280;50353;51.420;5.682;2022-11-15T01:31:13;100526.38;;;9.15;100.00
64095;BME280;50353;51.420;5.682;2022-11-15T01:33:39;100529.00;;;9.15;100.00
64095;BME280;50353;51.420;5.682;2022-11-15T01:36:11;100523.56;;;9.18;100.00
64095;BME280;50353;51.420;5.682;2022-11-15T01:38:37;100526.47;;;9.28;100.00
64095;BME280;50353;51.420;5.682;2022-11-15T01:41:03;100526.38;;;9.29;100.00
64095;BME280;50353;51.420;5.682;2022-11-15T01:43:31;100519.50;;;9.27;100.00
64095;BME280;50353;51.420;5.682;2022-11-15T01:46:24;100523.41;;;9.36;100.00
64095;BME280;50353;51.420;5.682;2022-11-15T01:48:51;100513.03;;;9.33;100.00
64095;BME280;50353;51.420;5.682;2022-11-15T01:51:19;100516.22;;;9.38;100.00
64095;BME280;50353;51.420;5.682;2022-11-15T01:53:48;100505.66;;;9.38;100.00
64095;BME280;50353;51.420;5.682;2022-11-15T01:56:17;100501.63;;;9.32;100.00
64095;BME280;50353;51.420;5.682;2022-11-15T01:58:44;100505.03;;;9.34;100.00
64095;BME280;50353;51.420;5.682;2022-11-15T02:01:12;100497.28;;;9.31;100.00
64095;BME280;50353;51.420;5.682;2022-11-15T02:06:16;100514.16;;;9.43;100.00
64095;BME280;50353;51.420;5.682;2022-11-15T02:08:42;100510.03;;;9.53;100.00
64095;BME280;50353;51.420;5.682;2022-11-15T02:11:09;100516.63;;;9.60;100.00
64095;BME280;50353;51.420;5.682;2022-11-15T02:13:35;100513.59;;;9.67;100.00
64095;BME280;50353;51.420;5.682;2022-11-15T02:18:52;100503.91;;;9.67;100.00
64095;BME280;50353;51.420;5.682;2022-11-15T02:24:23;100498.16;;;9.75;100.00
64095;BME280;50353;51.420;5.682;2022-11-15T02:27:11;100495.31;;;9.78;100.00
64095;BME280;50353;51.420;5.682;2022-11-15T02:30:00;100489.38;;;9.89;100.00
64095;BME280;50353;51.420;5.682;2022-11-15T02:32:37;100495.28;;;9.92;100.00
64095;BME280;50353;51.420;5.682;2022-11-15T02:37:57;100499.53;;;9.95;100.00
64095;BME280;50353;51.420;5.682;2022-11-15T02:43:09;100494.81;;;10.00;100.00
64095;BME280;50353;51.420;5.682;2022-11-15T02:46:01;100491.44;;;9.98;100.00
64095;BME280;50353;51.420;5.682;2022-11-15T02:48:28;100488.44;;;9.90;100.00
64095;BME280;50353;51.420;5.682;2022-11-15T02:50:54;100486.53;;;9.92;100.00
64095;BME280;50353;51.420;5.682;2022-11-15T02:53:24;100478.97;;;9.86;100.00
64095;BME280;50353;51.420;5.682;2022-11-15T02:55:50;100479.63;;;9.89;100.00
64095;BME280;50353;51.420;5.682;2022-11-15T03:01:29;100472.06;;;9.97;100.00
64095;BME280;50353;51.420;5.682;2022-11-15T03:04:10;100468.59;;;9.97;100.00
64095;BME280;50353;51.420;5.682;2022-11-15T03:11:57;100459.44;;;10.03;100.00
64095;BME280;50353;51.420;5.682;2022-11-15T03:14:32;100456.09;;;10.13;100.00
64095;BME280;50353;51.420;5.682;2022-11-15T03:20:09;100453.06;;;10.20;100.00
64095;BME280;50353;51.420;5.682;2022-11-15T03:22:42;100445.78;;;10.23;100.00
64095;BME280;50353;51.420;5.682;2022-11-15T03:25:10;100447.03;;;10.18;100.00
64095;BME280;50353;51.420;5.682;2022-11-15T03:27:42;100442.78;;;10.15;100.00
64095;BME280;50353;51.420;5.682;2022-11-15T03:30:09;100445.56;;;10.26;100.00
64095;BME280;50353;51.420;5.682;2022-11-15T03:32:39;100452.94;;;10.36;100.00
64095;BME280;50353;51.420;5.682;2022-11-15T03:35:06;100453.16;;;10.45;100.00
64095;BME280;50353;51.420;5.682;2022-11-15T03:38:13;100456.13;;;10.41;100.00
64095;BME280;50353;51.420;5.682;2022-11-15T03:40:42;100459.44;;;10.44;100.00
64095;BME280;50353;51.420;5.682;2022-11-15T03:43:32;100460.06;;;10.48;100.00
64095;BME280;50353;51.420;5.682;2022-11-15T03:46:04;100448.41;;;10.38;100.00
64095;BME280;50353;51.420;5.682;2022-11-15T03:48:35;100458.41;;;10.32;100.00
64095;BME280;50353;51.420;5.682;2022-11-15T03:51:03;100456.97;;;10.41;100.00
64095;BME280;50353;51.420;5.682;2022-11-15T03:53:29;100465.31;;;10.35;100.00
64095;BME280;50353;51.420;5.682;2022-11-15T03:55:55;100457.06;;;10.40;100.00
64095;BME280;50353;51.420;5.682;2022-11-15T03:58:21;100455.72;;;10.47;100.00
64095;BME280;50353;51.420;5.682;2022-11-15T04:00:46;100459.22;;;10.47;100.00
64095;BME280;50353;51.420;5.682;2022-11-15T04:03:11;100460.06;;;10.48;100.00
64095;BME280;50353;51.420;5.682;2022-11-15T04:05:36;100459.13;;;10.49;100.00
64095;BME280;50353;51.420;5.682;2022-11-15T04:08:02;100459.31;;;10.46;100.00
64095;BME280;50353;51.420;5.682;2022-11-15T04:10:27;100459.59;;;10.41;100.00
64095;BME280;50353;51.420;5.682;2022-11-15T04:12:52;100459.22;;;10.47;100.00
64095;BME280;50353;51.420;5.682;2022-11-15T04:15:22;100455.63;;;10.48;100.00
64095;BME280;50353;51.420;5.682;2022-11-15T04:17:50;100464.41;;;10.49;100.00
64095;BME280;50353;51.420;5.682;2022-11-15T04:20:20;100469.69;;;10.49;100.00
64095;BME280;50353;51.420;5.682;2022-11-15T04:23:07;100456.47;;;10.49;100.00
64095;BME280;50353;51.420;5.682;2022-11-15T04:25:54;100453.00;;;10.48;100.00
64095;BME280;50353;51.420;5.682;2022-11-15T04:28:20;100459.22;;;10.47;100.00
64095;BME280;50353;51.420;5.682;2022-11-15T04:30:45;100455.81;;;10.45;100.00
64095;BME280;50353;51.420;5.682;2022-11-15T04:33:11;100456.78;;;10.44;100.00
64095;BME280;50353;51.420;5.682;2022-11-15T04:35:36;100459.44;;;10.44;100.00
64095;BME280;50353;51.420;5.682;2022-11-15T04:38:03;100458.28;;;10.48;100.00
64095;BME280;50353;51.420;5.682;2022-11-15T04:40:29;100457.06;;;10.40;100.00
64095;BME280;50353;51.420;5.682;2022-11-15T04:42:55;100455.63;;;10.48;100.00
64095;BME280;50353;51.420;5.682;2022-11-15T04:45:20;100461.75;;;10.49;100.00
64095;BME280;50353;51.420;5.682;2022-11-15T04:47:46;100467.03;;;10.49;100.00
64095;BME280;50353;51.420;5.682;2022-11-15T04:50:12;100463.47;;;10.50;100.00
64095;BME280;50353;51.420;5.682;2022-11-15T04:52:43;100466.94;;;10.51;100.00
64095;BME280;50353;51.420;5.682;2022-11-15T04:55:10;100462.06;;;10.44;100.00
64095;BME280;50353;51.420;5.682;2022-11-15T04:57:36;100459.22;;;10.47;100.00
64095;BME280;50353;51.420;5.682;2022-11-15T05:00:04;100463.56;;;10.48;100.00
64095;BME280;50353;51.420;5.682;2022-11-15T05:02:29;100462.25;;;10.41;100.00
64095;BME280;50353;51.420;5.682;2022-11-15T05:05:15;100461.00;;;10.47;100.00
64095;BME280;50353;51.420;5.682;2022-11-15T05:07:40;100454.22;;;10.43;100.00
64095;BME280;50353;51.420;5.682;2022-11-15T05:10:05;100449.47;;;10.48;100.00
64095;BME280;50353;51.420;5.682;2022-11-15T05:12:31;100450.69;;;10.57;100.00
64095;BME280;50353;51.420;5.682;2022-11-15T05:14:56;100451.75;;;10.54;100.00
64095;BME280;50353;51.420;5.682;2022-11-15T05:17:21;100449.19;;;10.53;100.00
64095;BME280;50353;51.420;5.682;2022-11-15T05:19:47;100443.59;;;10.57;100.00
64095;BME280;50353;51.420;5.682;2022-11-15T05:22:12;100446.13;;;10.59;100.00
64095;BME280;50353;51.420;5.682;2022-11-15T05:24:37;100437.47;;;10.57;100.00
64095;BME280;50353;51.420;5.682;2022-11-15T05:27:02;100436.59;;;10.56;100.00
64095;BME280;50353;51.420;5.682;2022-11-15T05:29:28;100435.66;;;10.57;100.00
64095;BME280;50353;51.420;5.682;2022-11-15T05:31:53;100451.75;;;10.54;100.00
64095;BME280;50353;51.420;5.682;2022-11-15T05:34:18;100442.75;;;10.57;100.00
64095;BME280;50353;51.420;5.682;2022-11-15T05:36:44;100441.16;;;10.54;100.00
64095;BME280;50353;51.420;5.682;2022-11-15T05:39:10;100441.28;;;10.53;100.00
64095;BME280;50353;51.420;5.682;2022-11-15T05:44:07;100430.03;;;10.49;100.00
64095;BME280;50353;51.420;5.682;2022-11-15T05:46:35;100437.59;;;10.55;100.00
64095;BME280;50353;51.420;5.682;2022-11-15T05:49:01;100435.56;;;10.59;100.00
64095;BME280;50353;51.420;5.682;2022-11-15T05:51:27;100430.59;;;10.54;100.00
64095;BME280;50353;51.420;5.682;2022-11-15T05:53:54;100435.78;;;10.56;100.00
64095;BME280;50353;51.420;5.682;2022-11-15T05:56:20;100440.75;;;10.60;100.00
64095;BME280;50353;51.420;5.682;2022-11-15T05:58:46;100437.03;;;10.63;100.00
64095;BME280;50353;51.420;5.682;2022-11-15T06:01:11;100436.84;;;10.66;100.00
64095;BME280;50353;51.420;5.682;2022-11-15T06:03:36;100436.09;;;10.64;100.00
64095;BME280;50353;51.420;5.682;2022-11-15T06:06:02;100435.06;;;10.67;100.00
64095;BME280;50353;51.420;5.682;2022-11-15T06:08:27;100443.09;;;10.65;100.00
64095;BME280;50353;51.420;5.682;2022-11-15T06:10:52;100443.81;;;10.67;100.00
64095;BME280;50353;51.420;5.682;2022-11-15T06:13:18;100445.09;;;10.61;100.00
64095;BME280;50353;51.420;5.682;2022-11-15T06:15:43;100461.59;;;10.65;100.00
64095;BME280;50353;51.420;5.682;2022-11-15T06:18:08;100467.44;;;10.96;100.00
64095;BME280;50353;51.420;5.682;2022-11-15T06:20:34;100465.22;;;10.90;100.00
64095;BME280;50353;51.420;5.682;2022-11-15T06:23:00;100459.84;;;11.04;100.00
64095;BME280;50353;51.420;5.682;2022-11-15T06:25:27;100459.50;;;10.96;100.00
64095;BME280;50353;51.420;5.682;2022-11-15T06:27:57;100466.69;;;10.81;100.00
64095;BME280;50353;51.420;5.682;2022-11-15T06:30:24;100465.94;;;10.79;100.00
64095;BME280;50353;51.420;5.682;2022-11-15T06:32:49;100469.19;;;10.57;100.00
64095;BME280;50353;51.420;5.682;2022-11-15T06:35:15;100471.19;;;10.66;100.00
64095;BME280;50353;51.420;5.682;2022-11-15T06:37:41;100466.25;;;10.74;100.00
64095;BME280;50353;51.420;5.682;2022-11-15T06:40:08;100471.53;;;10.74;100.00
64095;BME280;50353;51.420;5.682;2022-11-15T06:42:33;100469.31;;;10.68;100.00
64095;BME280;50353;51.420;5.682;2022-11-15T06:44:59;100470.38;;;10.65;100.00
64095;BME280;50353;51.420;5.682;2022-11-15T06:47:24;100474.72;;;10.67;100.00
64095;BME280;50353;51.420;5.682;2022-11-15T06:49:49;100471.72;;;10.58;100.00
64095;BME280;50353;51.420;5.682;2022-11-15T06:52:15;100481.78;;;10.66;100.00
64095;BME280;50353;51.420;5.682;2022-11-15T06:54:40;100479.22;;;10.64;100.00
64095;BME280;50353;51.420;5.682;2022-11-15T06:57:06;100474.25;;;10.60;100.00
64095;BME280;50353;51.420;5.682;2022-11-15T06:59:31;100477.63;;;10.49;100.00
64095;BME280;50353;51.420;5.682;2022-11-15T07:01:56;100492.31;;;10.53;100.00
64095;BME280;50353;51.420;5.682;2022-11-15T07:04:21;100492.44;;;10.52;100.00
64095;BME280;50353;51.420;5.682;2022-11-15T07:06:47;100488.16;;;10.36;100.00
64095;BME280;50353;51.420;5.682;2022-11-15T07:09:13;100497.66;;;10.39;100.00
64095;BME280;50353;51.420;5.682;2022-11-15T07:11:38;100503.28;;;10.47;100.00
64095;BME280;50353;51.420;5.682;2022-11-15T07:14:04;100503.72;;;10.54;100.00
64095;BME280;50353;51.420;5.682;2022-11-15T07:16:29;100505.75;;;10.50;100.00
64095;BME280;50353;51.420;5.682;2022-11-15T07:18:55;100514.94;;;10.44;100.00
64095;BME280;50353;51.420;5.682;2022-11-15T07:21:20;100512.22;;;10.59;100.00
64095;BME280;50353;51.420;5.682;2022-11-15T07:23:45;100508.97;;;10.68;100.00
64095;BME280;50353;51.420;5.682;2022-11-15T07:26:11;100512.22;;;10.59;100.00
64095;BME280;50353;51.420;5.682;2022-11-15T07:28:36;100513.34;;;10.55;100.00
64095;BME280;50353;51.420;5.682;2022-11-15T07:31:06;100519.25;;;10.45;100.00
64095;BME280;50353;51.420;5.682;2022-11-15T07:33:32;100512.53;;;10.54;100.00
64095;BME280;50353;51.420;5.682;2022-11-15T07:36:05;100517.81;;;10.54;100.00
64095;BME280;50353;51.420;5.682;2022-11-15T07:38:30;100517.69;;;10.56;100.00
64095;BME280;50353;51.420;5.682;2022-11-15T07:41:00;100525.22;;;10.35;100.00
64095;BME280;50353;51.420;5.682;2022-11-15T07:43:26;100531.38;;;10.35;100.00
64095;BME280;50353;51.420;5.682;2022-11-15T07:45:55;100526.63;;;10.40;100.00
64095;BME280;50353;51.420;5.682;2022-11-15T07:48:21;100526.41;;;10.71;100.00
64095;BME280;50353;51.420;5.682;2022-11-15T07:50:47;100522.03;;;10.57;100.00
64095;BME280;50353;51.420;5.682;2022-11-15T07:53:12;100521.84;;;10.60;100.00
64095;BME280;50353;51.420;5.682;2022-11-15T07:55:39;100511.94;;;10.36;100.00
64095;BME280;50353;51.420;5.682;2022-11-15T07:58:07;100520.22;;;10.30;100.00
64095;BME280;50353;51.420;5.682;2022-11-15T08:00:34;100516.25;;;10.37;100.00
64095;BME280;50353;51.420;5.682;2022-11-15T08:03:13;100505.63;;;10.52;100.00
64095;BME280;50353;51.420;5.682;2022-11-15T08:05:40;100509.44;;;10.33;100.00
64095;BME280;50353;51.420;5.682;2022-11-15T08:08:06;100509.66;;;10.57;100.00
64095;BME280;50353;51.420;5.682;2022-11-15T08:10:32;100507.25;;;10.67;100.00
64095;BME280;50353;51.420;5.682;2022-11-15T08:13:03;100519.09;;;10.61;100.00
64095;BME280;50353;51.420;5.682;2022-11-15T08:15:29;100523.78;;;10.71;100.00
64095;BME280;50353;51.420;5.682;2022-11-15T08:17:56;100528.06;;;10.59;100.00
64095;BME280;50353;51.420;5.682;2022-11-15T08:20:22;100523.50;;;10.88;100.00
64095;BME280;50353;51.420;5.682;2022-11-15T08:22:48;100528.47;;;10.80;100.00
64095;BME280;50353;51.420;5.682;2022-11-15T08:25:13;100517.44;;;10.73;100.00
64095;BME280;50353;51.420;5.682;2022-11-15T08:27:39;100516.06;;;10.68;100.00
64095;BME280;50353;51.420;5.682;2022-11-15T08:30:04;100512.56;;;10.67;100.00
64095;BME280;50353;51.420;5.682;2022-11-15T08:32:31;100510.84;;;10.66;100.00
64095;BME280;50353;51.420;5.682;2022-11-15T08:34:56;100524.34;;;10.48;100.00
64095;BME280;50353;51.420;5.682;2022-11-15T08:37:21;100518.88;;;10.64;100.00
64095;BME280;50353;51.420;5.682;2022-11-15T08:39:47;100514.94;;;10.85;100.00
64095;BME280;50353;51.420;5.682;2022-11-15T08:42:12;100512.84;;;10.90;100.00
64095;BME280;50353;51.420;5.682;2022-11-15T08:44:38;100511.38;;;10.58;100.00
64095;BME280;50353;51.420;5.682;2022-11-15T08:47:03;100503.81;;;10.79;100.00
64095;BME280;50353;51.420;5.682;2022-11-15T08:49:29;100498.00;;;10.87;100.00
64095;BME280;50353;51.420;5.682;2022-11-15T08:51:54;100492.50;;;10.77;100.00
64095;BME280;50353;51.420;5.682;2022-11-15T08:54:19;100492.69;;;10.74;100.00
64095;BME280;50353;51.420;5.682;2022-11-15T08:56:45;100495.03;;;10.79;100.00
64095;BME280;50353;51.420;5.682;2022-11-15T08:59:10;100492.28;;;10.80;100.00
64095;BME280;50353;51.420;5.682;2022-11-15T09:01:35;100488.50;;;10.97;100.00
64095;BME280;50353;51.420;5.682;2022-11-15T09:04:01;100484.50;;;11.05;100.00
64095;BME280;50353;51.420;5.682;2022-11-15T09:06:26;100479.31;;;11.16;100.00
64095;BME280;50353;51.420;5.682;2022-11-15T09:08:51;100486.94;;;11.08;100.00
64095;BME280;50353;51.420;5.682;2022-11-15T09:11:17;100485.66;;;11.13;100.00
64095;BME280;50353;51.420;5.682;2022-11-15T09:13:45;100482.47;;;11.08;100.00
64095;BME280;50353;51.420;5.682;2022-11-15T09:16:10;100483.22;;;11.23;100.00
64095;BME280;50353;51.420;5.682;2022-11-15T09:18:37;100475.22;;;11.25;100.00
64095;BME280;50353;51.420;5.682;2022-11-15T09:21:03;100474.47;;;11.23;100.00
64095;BME280;50353;51.420;5.682;2022-11-15T09:23:29;100470.31;;;11.31;100.00
64095;BME280;50353;51.420;5.682;2022-11-15T09:26:00;100454.03;;;11.25;100.00
64095;BME280;50353;51.420;5.682;2022-11-15T09:28:26;100455.09;;;11.48;100.00
64095;BME280;50353;51.420;5.682;2022-11-15T09:30:56;100456.34;;;11.55;100.00
64095;BME280;50353;51.420;5.682;2022-11-15T09:33:21;100453.28;;;11.48;100.00
64095;BME280;50353;51.420;5.682;2022-11-15T09:35:46;100452.06;;;11.65;99.02
64095;BME280;50353;51.420;5.682;2022-11-15T09:38:12;100444.41;;;11.74;98.44
64095;BME280;50353;51.420;5.682;2022-11-15T09:40:37;100439.81;;;11.64;98.74
64095;BME280;50353;51.420;5.682;2022-11-15T09:43:14;100449.00;;;11.72;99.36
64095;BME280;50353;51.420;5.682;2022-11-15T09:45:57;100446.44;;;11.96;93.70
64095;BME280;50353;51.420;5.682;2022-11-15T09:51:04;100442.22;;;12.17;89.58
64095;BME280;50353;51.420;5.682;2022-11-15T09:53:36;100442.00;;;12.08;87.63
64095;BME280;50353;51.420;5.682;2022-11-15T09:56:26;100438.66;;;12.06;86.60
64095;BME280;50353;51.420;5.682;2022-11-15T09:59:04;100446.63;;;11.80;86.18
64095;BME280;50353;51.420;5.682;2022-11-15T10:01:50;100439.16;;;11.61;83.82
64095;BME280;50353;51.420;5.682;2022-11-15T10:04:21;100441.41;;;12.28;82.37
64095;BME280;50353;51.420;5.682;2022-11-15T10:06:54;100447.41;;;12.19;82.74
64095;BME280;50353;51.420;5.682;2022-11-15T10:09:47;100434.81;;;12.10;81.65
64095;BME280;50353;51.420;5.682;2022-11-15T10:12:16;100438.59;;;11.94;84.78
64095;BME280;50353;51.420;5.682;2022-11-15T10:14:42;100440.28;;;12.20;81.83
64095;BME280;50353;51.420;5.682;2022-11-15T10:17:33;100434.22;;;11.93;82.02
64095;BME280;50353;51.420;5.682;2022-11-15T10:20:14;100427.16;;;12.18;82.30
64095;BME280;50353;51.420;5.682;2022-11-15T10:22:48;100425.50;;;11.91;82.98
64095;BME280;50353;51.420;5.682;2022-11-15T10:25:16;100436.63;;;12.09;84.01
64095;BME280;50353;51.420;5.682;2022-11-15T10:27:45;100413.50;;;11.74;83.10
64095;BME280;50353;51.420;5.682;2022-11-15T10:30:15;100418.56;;;11.90;81.94
64095;BME280;50353;51.420;5.682;2022-11-15T10:32:42;100431.41;;;12.08;81.41
64095;BME280;50353;51.420;5.682;2022-11-15T10:35:29;100413.22;;;12.03;81.12
64095;BME280;50353;51.420;5.682;2022-11-15T10:38:06;100427.66;;;11.86;82.83
64095;BME280;50353;51.420;5.682;2022-11-15T10:40:32;100414.75;;;11.81;82.69
64095;BME280;50353;51.420;5.682;2022-11-15T10:45:35;100406.69;;;11.83;84.30
64095;BME280;50353;51.420;5.682;2022-11-15T10:48:20;100391.75;;;11.95;82.21
64095;BME280;50353;51.420;5.682;2022-11-15T10:50:48;100405.28;;;11.66;80.72
64095;BME280;50353;51.420;5.682;2022-11-15T10:55:47;100406.97;;;11.91;80.46
64095;BME280;50353;51.420;5.682;2022-11-15T11:00:53;100390.41;;;11.76;79.79
64095;BME280;50353;51.420;5.682;2022-11-15T11:06:05;100379.53;;;11.92;80.54
64095;BME280;50353;51.420;5.682;2022-11-15T11:08:31;100374.19;;;12.05;79.92
64095;BME280;50353;51.420;5.682;2022-11-15T11:10:59;100371.78;;;12.02;80.51
64095;BME280;50353;51.420;5.682;2022-11-15T11:13:26;100363.78;;;12.15;80.42
64095;BME280;50353;51.420;5.682;2022-11-15T11:16:24;100362.53;;;12.43;80.14
64095;BME280;50353;51.420;5.682;2022-11-15T11:22:05;100348.19;;;12.93;76.03
64095;BME280;50353;51.420;5.682;2022-11-15T11:30:17;100338.75;;;12.77;73.15
64095;BME280;50353;51.420;5.682;2022-11-15T11:33:01;100317.97;;;12.37;75.56
64095;BME280;50353;51.420;5.682;2022-11-15T11:35:38;100321.06;;;12.31;76.33
64095;BME280;50353;51.420;5.682;2022-11-15T11:38:34;100312.94;;;12.57;75.28
64095;BME280;50353;51.420;5.682;2022-11-15T11:44:02;100291.50;;;12.82;74.41
64095;BME280;50353;51.420;5.682;2022-11-15T11:46:49;100297.38;;;12.75;73.30
64095;BME280;50353;51.420;5.682;2022-11-15T11:49:21;100285.22;;;13.06;73.15
64095;BME280;50353;51.420;5.682;2022-11-15T11:51:56;100290.22;;;13.32;72.48
64095;BME280;50353;51.420;5.682;2022-11-15T11:57:44;100276.63;;;13.37;70.02
64095;BME280;50353;51.420;5.682;2022-11-15T12:00:17;100260.31;;;13.41;70.50
64095;BME280;50353;51.420;5.682;2022-11-15T12:02:48;100259.44;;;13.52;69.82
64095;BME280;50353;51.420;5.682;2022-11-15T12:05:25;100253.03;;;13.55;71.07
64095;BME280;50353;51.420;5.682;2022-11-15T12:07:54;100248.81;;;13.52;71.69
64095;BME280;50353;51.420;5.682;2022-11-15T12:10:30;100253.25;;;13.63;70.96
64095;BME280;50353;51.420;5.682;2022-11-15T12:13:04;100244.56;;;13.61;70.80
64095;BME280;50353;51.420;5.682;2022-11-15T12:15:36;100251.88;;;13.47;70.17
64095;BME280;50353;51.420;5.682;2022-11-15T12:18:04;100240.56;;;13.23;70.01
64095;BME280;50353;51.420;5.682;2022-11-15T12:20:37;100241.56;;;12.88;72.24
64095;BME280;50353;51.420;5.682;2022-11-15T12:23:11;100235.53;;;12.85;73.15
64095;BME280;50353;51.420;5.682;2022-11-15T12:28:52;100223.47;;;13.04;72.23
64095;BME280;50353;51.420;5.682;2022-11-15T12:31:24;100216.72;;;13.00;73.37
64095;BME280;50353;51.420;5.682;2022-11-15T12:33:57;100211.88;;;12.94;70.89
64095;BME280;50353;51.420;5.682;2022-11-15T12:38:59;100205.63;;;12.95;70.90
64095;BME280;50353;51.420;5.682;2022-11-15T12:41:33;100203.19;;;13.03;70.04
64095;BME280;50353;51.420;5.682;2022-11-15T12:43:59;100193.00;;;12.87;69.67
64095;BME280;50353;51.420;5.682;2022-11-15T12:48:59;100180.69;;;12.75;70.18
64095;BME280;50353;51.420;5.682;2022-11-15T13:02:20;100154.31;;;12.73;68.68
64095;BME280;50353;51.420;5.682;2022-11-15T13:04:47;100159.38;;;12.76;68.52
64095;BME280;50353;51.420;5.682;2022-11-15T13:17:49;100136.72;;;12.72;68.75
64095;BME280;50353;51.420;5.682;2022-11-15T13:22:45;100134.81;;;12.63;69.68
64095;BME280;50353;51.420;5.682;2022-11-15T13:28:32;100122.47;;;12.84;68.99
64095;BME280;50353;51.420;5.682;2022-11-15T13:31:01;100117.16;;;12.84;69.53
64095;BME280;50353;51.420;5.682;2022-11-15T13:33:33;100116.69;;;12.79;70.10
64095;BME280;50353;51.420;5.682;2022-11-15T13:36:03;100093.31;;;12.73;70.58
64095;BME280;50353;51.420;5.682;2022-11-15T13:38:32;100099.44;;;12.85;70.47
64095;BME280;50353;51.420;5.682;2022-11-15T13:40:59;100092.66;;;12.92;70.50
64095;BME280;50353;51.420;5.682;2022-11-15T13:43:35;100083.59;;;12.95;68.54
64095;BME280;50353;51.420;5.682;2022-11-15T13:48:29;100090.44;;;12.76;72.48
64095;BME280;50353;51.420;5.682;2022-11-15T13:50:56;100080.06;;;12.73;71.57
64095;BME280;50353;51.420;5.682;2022-11-15T13:53:21;100081.81;;;12.84;70.01
64095;BME280;50353;51.420;5.682;2022-11-15T13:55:47;100081.41;;;12.67;72.39
64095;BME280;50353;51.420;5.682;2022-11-15T13:58:12;100079.00;;;12.64;72.25
64095;BME280;50353;51.420;5.682;2022-11-15T14:00:40;100064.78;;;12.65;71.03
64095;BME280;50353;51.420;5.682;2022-11-15T14:03:16;100069.75;;;12.59;71.59
64095;BME280;50353;51.420;5.682;2022-11-15T14:05:43;100062.00;;;12.67;71.63
64095;BME280;50353;51.420;5.682;2022-11-15T14:10:40;100055.13;;;12.64;72.21
64095;BME280;50353;51.420;5.682;2022-11-15T14:13:26;100043.94;;;12.61;72.15
64095;BME280;50353;51.420;5.682;2022-11-15T14:15:52;100041.06;;;12.64;72.26
64095;BME280;50353;51.420;5.682;2022-11-15T14:18:44;100041.16;;;12.62;73.29
64095;BME280;50353;51.420;5.682;2022-11-15T14:21:09;100031.88;;;12.68;72.93
64095;BME280;50353;51.420;5.682;2022-11-15T14:23:35;100036.06;;;12.71;72.97
64095;BME280;50353;51.420;5.682;2022-11-15T14:26:00;100026.13;;;12.51;73.12
64095;BME280;50353;51.420;5.682;2022-11-15T14:30:53;100018.63;;;12.57;73.17
64095;BME280;50353;51.420;5.682;2022-11-15T14:33:29;100015.97;;;12.57;73.88